Time;durP1;ratioP1;P1;durP2;ratioP2;P2;SDS_P1;SDS_P2;PMS_P1;PMS_P2;Temp;Humidity;BMP_temperature;BMP_pressure;BME280_temperature;BME280_humidity;BME280_pressure;Samples;Min_cycle;Max_cycle;Signal;HPM_P1;HPM_P2
2021/12/19 00:00:26;;;;;;;0.60;0.60;;;;;;;0.72;92.66;98541.28;29373;253;63004;-62
2021/12/19 00:01:03;;;;;;;0.60;0.60;;;;;;;0.73;92.61;98537.59;29373;220;63009;-58
2021/12/19 00:02:46;;;;;;;0.70;0.70;;;;;;;0.75;92.51;98541.72;29393;198;64013;-61
2021/12/19 00:04:38;;;;;;;0.62;0.62;;;;;;;0.71;92.55;98544.97;29373;222;63009;-59
2021/12/19 00:08:49;;;;;;;0.70;0.70;;;;;;;0.73;92.53;98538.41;29373;211;63010;-62
2021/12/19 00:09:21;;;;;;;0.60;0.60;;;;;;;0.75;92.49;98540.91;29371;229;64014;-59
2021/12/19 00:09:53;;;;;;;0.60;0.60;;;;;;;0.75;92.42;98546.25;29373;234;63005;-60
2021/12/19 00:10:25;;;;;;;0.60;0.60;;;;;;;0.76;92.57;98539.88;29373;292;63026;-60
2021/12/19 00:10:58;;;;;;;0.80;0.80;;;;;;;0.74;92.51;98539.25;29373;302;63019;-61
2021/12/19 00:11:29;;;;;;;0.60;0.60;;;;;;;0.74;92.72;98539.25;29373;288;63026;-61
2021/12/19 00:12:01;;;;;;;0.60;0.60;;;;;;;0.73;92.95;98542.94;29373;258;63005;-59
2021/12/19 00:12:34;;;;;;;0.60;0.60;;;;;;;0.70;92.58;98538.81;29373;296;63009;-57
2021/12/19 00:13:07;;;;;;;0.60;0.60;;;;;;;0.69;92.93;98541.69;29373;345;63004;-60
2021/12/19 00:13:40;;;;;;;1.37;1.27;;;;;;;0.69;92.99;98542.50;29373;315;63009;-57
2021/12/19 00:14:11;;;;;;;0.60;0.60;;;;;;;0.69;93.11;98536.34;29373;214;63004;-61
2021/12/19 00:14:43;;;;;;;0.60;0.60;;;;;;;0.69;93.19;98533.69;29371;247;64013;-60
2021/12/19 00:15:14;;;;;;;0.60;0.60;;;;;;;0.70;93.20;98537.97;29373;294;63004;-60
2021/12/19 00:15:46;;;;;;;1.80;1.80;;;;;;;0.69;92.91;98537.19;29373;220;63009;-59
2021/12/19 00:16:18;;;;;;;0.60;0.60;;;;;;;0.71;93.00;98534.28;29373;216;63008;-59
2021/12/19 00:16:54;;;;;;;0.60;0.60;;;;;;;0.72;92.89;98535.94;29373;207;63009;-60
2021/12/19 00:17:25;;;;;;;0.70;0.70;;;;;;;0.74;93.18;98534.72;29373;234;63005;-61
2021/12/19 00:17:57;;;;;;;0.60;0.60;;;;;;;0.74;92.97;98537.41;29373;271;63009;-61
2021/12/19 00:18:28;;;;;;;0.60;0.60;;;;;;;0.75;92.92;98540.91;29371;333;64009;-61
2021/12/19 00:19:00;;;;;;;0.60;0.60;;;;;;;0.75;93.09;98535.56;29373;225;63009;-60
2021/12/19 00:19:32;;;;;;;0.60;0.60;;;;;;;0.75;93.15;98535.56;29373;245;63016;-60
2021/12/19 00:20:04;;;;;;;0.60;0.60;;;;;;;0.76;92.97;98542.56;29373;233;63009;-60
2021/12/19 00:20:35;;;;;;;0.60;0.60;;;;;;;0.75;93.20;98535.56;29373;255;63004;-57
2021/12/19 00:21:07;;;;;;;0.60;0.60;;;;;;;0.76;92.81;98531.88;29373;296;63009;-61
2021/12/19 00:21:40;;;;;;;0.60;0.60;;;;;;;0.74;93.15;98529.37;29373;278;63004;-61
2021/12/19 00:22:13;;;;;;;0.60;0.60;;;;;;;0.73;93.16;98532.25;29373;202;63009;-60
2021/12/19 00:22:44;;;;;;;0.80;0.80;;;;;;;0.73;93.28;98532.25;29371;359;64008;-60
2021/12/19 00:23:16;;;;;;;0.60;0.60;;;;;;;0.72;93.19;98531.41;29371;222;64013;-61
2021/12/19 00:23:52;;;;;;;0.60;0.60;;;;;;;0.73;92.96;98533.06;29373;292;63005;-57
2021/12/19 00:24:24;;;;;;;0.60;0.60;;;;;;;0.73;93.11;98532.25;29373;233;63009;-57
2021/12/19 00:24:55;;;;;;;0.60;0.60;;;;;;;0.74;93.15;98533.91;29373;235;63005;-60
2021/12/19 00:25:29;;;;;;;0.60;0.60;;;;;;;0.71;93.13;98529.78;29373;202;63009;-57
2021/12/19 00:26:01;;;;;;;0.60;0.60;;;;;;;0.71;93.01;98534.28;29371;202;64009;-57
2021/12/19 00:26:32;;;;;;;0.60;0.60;;;;;;;0.69;93.27;98529.16;29373;208;63009;-57
2021/12/19 00:27:03;;;;;;;0.60;0.60;;;;;;;0.69;93.00;98533.69;29371;199;64009;-58
2021/12/19 00:27:35;;;;;;;0.60;0.60;;;;;;;0.67;93.13;98531.19;29373;197;63009;-60
2021/12/19 00:28:06;;;;;;;0.60;0.60;;;;;;;0.64;93.26;98534.25;29373;329;63004;-57
2021/12/19 00:28:38;;;;;;;0.60;0.60;;;;;;;0.64;93.23;98532.41;29373;339;63022;-61
2021/12/19 00:29:10;;;;;;;0.60;0.60;;;;;;;0.65;93.47;98531.38;29373;353;63004;-57
2021/12/19 00:29:41;;;;;;;0.60;0.60;;;;;;;0.66;93.49;98535.72;29371;305;64013;-56
2021/12/19 00:30:12;;;;;;;0.60;0.60;;;;;;;0.69;93.31;98531.00;29373;252;63004;-57
2021/12/19 00:30:44;;;;;;;0.60;0.60;;;;;;;0.69;93.34;98531.00;29373;300;63008;-57
2021/12/19 00:31:16;;;;;;;0.60;0.60;;;;;;;0.68;93.24;98529.34;29373;280;63005;-57
2021/12/19 00:31:48;;;;;;;0.60;0.60;;;;;;;0.68;93.61;98524.00;29373;227;63009;-57
2021/12/19 00:32:19;;;;;;;0.60;0.60;;;;;;;0.68;93.73;98534.69;29371;345;64009;-58
2021/12/19 00:32:51;;;;;;;0.60;0.60;;;;;;;0.69;93.46;98531.00;29373;335;63009;-60
2021/12/19 00:33:23;;;;;;;0.60;0.60;;;;;;;0.69;93.55;98531.00;29371;230;64009;-60
2021/12/19 00:33:54;;;;;;;0.60;0.60;;;;;;;0.69;93.30;98531.00;29373;219;63009;-57
2021/12/19 00:34:26;;;;;;;0.60;0.60;;;;;;;0.69;93.33;98528.34;29373;205;63010;-60
2021/12/19 00:34:57;;;;;;;0.60;0.60;;;;;;;0.69;93.52;98529.16;29373;202;63009;-57
2021/12/19 00:35:29;;;;;;;0.60;0.60;;;;;;;0.70;93.23;98532.63;29373;276;63004;-57
2021/12/19 00:36:00;;;;;;;0.60;0.60;;;;;;;0.71;93.35;98519.09;29373;198;63009;-56
2021/12/19 00:36:32;;;;;;;0.60;0.60;;;;;;;0.72;93.53;98523.41;29373;336;63004;-60
2021/12/19 00:37:03;;;;;;;0.60;0.60;;;;;;;0.73;93.73;98521.56;29373;274;63008;-57
2021/12/19 00:37:35;;;;;;;0.60;0.60;;;;;;;0.75;93.41;98524.88;29373;220;63004;-60
2021/12/19 00:38:06;;;;;;;0.60;0.60;;;;;;;0.77;93.51;98517.50;29371;343;64013;-61
2021/12/19 00:38:37;;;;;;;0.60;0.60;;;;;;;0.77;93.29;98517.50;29373;220;63005;-61
2021/12/19 00:39:09;;;;;;;0.60;0.60;;;;;;;0.77;93.53;98517.50;29373;209;63009;-56
2021/12/19 00:39:40;;;;;;;0.60;0.60;;;;;;;0.77;93.25;98518.31;29373;206;63005;-61
2021/12/19 00:40:13;;;;;;;1.55;1.55;;;;;;;0.78;93.35;98519.16;29373;360;63009;-61
2021/12/19 00:40:44;;;;;;;0.60;0.60;;;;;;;0.78;93.00;98513.81;29371;221;64023;-57
2021/12/19 00:41:15;;;;;;;0.60;0.60;;;;;;;0.76;93.01;98510.50;29373;299;63009;-60
2021/12/19 00:41:52;;;;;;;0.62;0.62;;;;;;;0.75;93.33;98514.19;29373;263;63004;-57
2021/12/19 00:42:34;;;;;;;0.60;0.60;;;;;;;0.73;93.39;98506.34;29373;261;63024;-60
2021/12/19 00:43:10;;;;;;;1.35;1.35;;;;;;;0.71;93.43;98507.56;29373;202;63014;-56
2021/12/19 00:43:55;;;;;;;0.70;0.70;;;;;;;0.69;93.66;98501.63;29371;235;64013;-60
2021/12/19 00:44:26;;;;;;;0.60;0.60;;;;;;;0.70;93.68;98511.25;29373;328;63004;-56
2021/12/19 00:45:01;;;;;;;0.70;0.70;;;;;;;0.66;93.61;98500.97;29373;303;63008;-56
2021/12/19 00:45:35;;;;;;;0.70;0.70;;;;;;;0.66;93.62;98502.81;29373;333;63005;-57
2021/12/19 00:46:08;;;;;;;0.70;0.70;;;;;;;0.64;93.55;98503.00;29373;330;63009;-60
2021/12/19 00:46:47;;;;;;;0.60;0.60;;;;;;;0.63;93.58;98503.19;29373;243;63005;-57
2021/12/19 00:47:19;;;;;;;1.02;1.02;;;;;;;0.63;93.87;98501.34;29373;214;63009;-57
2021/12/19 00:47:54;;;;;;;0.70;0.70;;;;;;;0.64;93.91;98492.31;29373;369;63005;-57
2021/12/19 00:48:28;;;;;;;0.62;0.62;;;;;;;0.64;94.06;98495.00;29371;197;64013;-57
2021/12/19 00:48:59;;;;;;;0.65;0.65;;;;;;;0.66;93.79;98492.97;29373;241;63005;-57
2021/12/19 00:49:31;;;;;;;0.60;0.60;;;;;;;0.65;94.16;98502.00;29373;336;63009;-60
2021/12/19 00:50:06;;;;;;;0.60;0.60;;;;;;;0.64;93.87;98494.16;29373;354;63004;-58
2021/12/19 00:50:38;;;;;;;0.60;0.60;;;;;;;0.63;93.80;98495.19;29373;321;63016;-61
2021/12/19 00:51:14;;;;;;;0.60;0.60;;;;;;;0.63;94.18;98496.00;29373;313;63004;-60
2021/12/19 00:51:46;;;;;;;0.60;0.60;;;;;;;0.64;94.09;98496.84;29373;351;63009;-60
2021/12/19 00:52:18;;;;;;;0.60;0.60;;;;;;;0.65;94.21;98493.97;29373;202;63004;-58
2021/12/19 00:52:50;;;;;;;0.60;0.60;;;;;;;0.66;93.87;98484.13;29373;340;63009;-61
2021/12/19 00:53:21;;;;;;;0.60;0.60;;;;;;;0.67;93.85;98485.78;29371;358;64000;-60
2021/12/19 00:53:56;;;;;;;0.60;0.60;;;;;;;0.66;93.78;98487.62;29373;202;63009;-57
2021/12/19 00:54:28;;;;;;;0.60;0.60;;;;;;;0.68;93.86;98491.94;29373;310;63005;-56
2021/12/19 00:54:59;;;;;;;0.60;0.60;;;;;;;0.66;94.02;98490.28;29373;328;63009;-56
2021/12/19 00:55:31;;;;;;;0.60;0.60;;;;;;;0.56;93.67;98481.75;29373;366;63005;-60
2021/12/19 00:56:03;;;;;;;7.22;6.93;;;;;;;0.62;93.64;98488.19;29373;309;63009;-57
2021/12/19 00:56:35;;;;;;;0.60;0.60;;;;;;;0.61;93.95;98487.38;29373;356;63005;-57
2021/12/19 00:57:07;;;;;;;0.60;0.60;;;;;;;0.59;93.75;98492.06;29373;306;63009;-57
2021/12/19 00:57:38;;;;;;;0.60;0.60;;;;;;;0.60;93.73;98480.38;29371;307;64009;-57
2021/12/19 00:58:09;;;;;;;128.12;111.85;;;;;;;0.60;93.65;98483.03;29353;312;67009;-60
2021/12/19 00:58:42;;;;;;;0.60;0.60;;;;;;;0.63;93.84;98485.31;29371;206;64009;-60
2021/12/19 00:59:13;;;;;;;0.60;0.60;;;;;;;0.65;93.94;98483.28;29373;265;63009;-56
2021/12/19 00:59:44;;;;;;;0.60;0.60;;;;;;;0.68;94.01;98481.25;29373;254;63004;-57
2021/12/19 01:00:18;;;;;;;0.60;0.60;;;;;;;0.69;93.96;98475.72;29373;211;63009;-56
2021/12/19 01:00:51;;;;;;;0.60;0.60;;;;;;;0.71;93.73;98481.69;29373;251;63005;-56
2021/12/19 01:01:22;;;;;;;0.60;0.60;;;;;;;0.71;93.91;98488.88;29373;316;63014;-57
2021/12/19 01:01:53;;;;;;;2.33;2.25;;;;;;;0.72;93.77;98488.69;29373;352;63005;-57
2021/12/19 01:02:25;;;;;;;0.60;0.60;;;;;;;0.72;93.67;98475.31;29373;226;63009;-60
2021/12/19 01:02:59;;;;;;;0.60;0.60;;;;;;;0.73;93.79;98479.66;29373;221;63005;-57
2021/12/19 01:03:31;;;;;;;0.60;0.60;;;;;;;0.73;93.77;98489.50;29373;314;63009;-57
2021/12/19 01:04:09;;;;;;;0.60;0.60;;;;;;;0.73;93.66;98494.84;29371;202;64009;-60
2021/12/19 01:04:41;;;;;;;0.60;0.60;;;;;;;0.71;93.65;98484.34;29373;218;63009;-56
2021/12/19 01:05:13;;;;;;;0.60;0.60;;;;;;;0.71;93.49;98491.53;29371;288;64009;-61
2021/12/19 01:05:45;;;;;;;0.70;0.70;;;;;;;0.72;93.80;98485.19;29373;219;63009;-59
2021/12/19 01:06:18;;;;;;;0.60;0.60;;;;;;;0.71;93.72;98486.19;29373;209;63004;-61
2021/12/19 01:06:50;;;;;;;0.60;0.60;;;;;;;0.72;93.65;98493.19;29373;202;63014;-60
2021/12/19 01:07:21;;;;;;;0.60;0.60;;;;;;;0.72;93.68;98486.00;29373;196;63009;-61
2021/12/19 01:07:53;;;;;;;0.70;0.70;;;;;;;0.74;93.45;98491.16;29373;342;63009;-60
2021/12/19 01:08:24;;;;;;;1.50;1.50;;;;;;;0.73;93.68;98478.81;29373;266;63005;-56
2021/12/19 01:08:56;;;;;;;0.60;0.60;;;;;;;0.73;93.37;98478.81;29373;209;63009;-57
2021/12/19 01:09:28;;;;;;;1.70;1.70;;;;;;;0.75;93.64;98482.13;29373;251;63005;-57
2021/12/19 01:10:00;;;;;;;0.60;0.60;;;;;;;0.75;93.52;98482.13;29371;294;64013;-61
2021/12/19 01:10:32;;;;;;;0.60;0.60;;;;;;;0.72;93.45;98478.00;29373;216;63009;-57
2021/12/19 01:11:03;;;;;;;0.70;0.70;;;;;;;0.70;93.42;98485.38;29373;223;63009;-60
2021/12/19 01:11:36;;;;;;;0.60;0.60;;;;;;;0.70;93.48;98489.88;29373;308;63005;-56
2021/12/19 01:12:10;;;;;;;0.60;0.60;;;;;;;0.68;93.47;98487.44;29373;222;63009;-56
2021/12/19 01:12:41;;;;;;;0.60;0.60;;;;;;;0.67;93.22;98480.44;29373;323;63004;-56
2021/12/19 01:13:16;;;;;;;0.60;0.60;;;;;;;0.68;93.45;98483.94;29373;246;63026;-57
2021/12/19 01:13:48;;;;;;;0.62;0.62;;;;;;;0.68;93.58;98483.94;29373;340;63004;-57
2021/12/19 01:14:19;;;;;;;0.60;0.60;;;;;;;0.69;93.35;98482.91;29371;225;64013;-57
2021/12/19 01:14:52;;;;;;;0.60;0.60;;;;;;;0.68;93.46;98484.75;29373;246;63004;-60
2021/12/19 01:15:24;;;;;;;0.60;0.60;;;;;;;0.67;93.54;98480.44;29373;316;63009;-57
2021/12/19 01:15:57;;;;;;;0.70;0.70;;;;;;;0.65;93.87;98477.94;29373;283;63005;-57
2021/12/19 01:16:32;;;;;;;0.60;0.60;;;;;;;0.65;93.89;98477.13;29373;235;63009;-57
2021/12/19 01:17:08;;;;;;;0.60;0.60;;;;;;;0.63;93.67;98477.31;29373;365;63005;-61
2021/12/19 01:17:43;;;;;;;0.60;0.60;;;;;;;0.61;93.94;98476.69;29373;289;63009;-57
2021/12/19 01:18:15;;;;;;;0.60;0.60;;;;;;;0.62;94.00;98477.50;29373;263;63005;-60
2021/12/19 01:18:50;;;;;;;0.60;0.60;;;;;;;0.62;93.83;98475.66;29373;330;63009;-59
2021/12/19 01:19:24;;;;;;;0.60;0.60;;;;;;;0.63;93.98;98476.50;29371;197;64009;-61
2021/12/19 01:19:55;;;;;;;0.60;0.60;;;;;;;0.64;94.06;98465.62;29373;307;63009;-60
2021/12/19 01:20:29;;;;;;;0.60;0.60;;;;;;;0.65;94.21;98475.28;29373;199;63004;-61
2021/12/19 01:21:00;;;;;;;0.60;0.60;;;;;;;0.67;94.13;98475.09;29373;247;63009;-58
2021/12/19 01:21:32;;;;;;;0.70;0.70;;;;;;;0.68;93.89;98483.94;29373;202;63008;-56
2021/12/19 01:22:04;;;;;;;0.60;0.60;;;;;;;0.68;93.84;98481.25;29373;202;63008;-61
2021/12/19 01:22:39;;;;;;;0.60;0.60;;;;;;;0.69;93.80;98485.59;29373;261;63004;-56
2021/12/19 01:23:12;;;;;;;0.70;0.70;;;;;;;0.69;93.74;98482.91;29373;274;63009;-56
2021/12/19 01:23:44;;;;;;;0.68;0.68;;;;;;;0.69;93.97;98482.91;29373;338;63005;-57
2021/12/19 01:24:15;;;;;;;0.60;0.60;;;;;;;0.70;93.77;98489.88;29373;203;63017;-57
2021/12/19 01:24:46;;;;;;;0.60;0.60;;;;;;;0.71;93.59;98483.53;29371;279;64009;-56
2021/12/19 01:25:19;;;;;;;0.60;0.60;;;;;;;0.70;93.77;98474.69;29373;189;63009;-60
2021/12/19 01:25:51;;;;;;;0.60;0.60;;;;;;;0.71;93.75;98480.84;29373;210;63011;-60
2021/12/19 01:26:22;;;;;;;0.70;0.70;;;;;;;0.71;93.94;98476.34;29373;204;63009;-57
2021/12/19 01:26:54;;;;;;;0.60;0.60;;;;;;;0.71;93.75;98467.50;29373;366;63015;-57
2021/12/19 01:27:26;;;;;;;0.70;0.70;;;;;;;0.71;93.63;98470.16;29373;202;63009;-60
2021/12/19 01:27:58;;;;;;;0.60;0.60;;;;;;;0.71;93.86;98475.50;29373;218;63004;-60
2021/12/19 01:28:30;;;;;;;0.60;0.60;;;;;;;0.72;93.60;98471.81;29373;269;63009;-58
2021/12/19 01:29:02;;;;;;;0.60;0.60;;;;;;;0.71;93.84;98468.31;29373;332;63004;-57
2021/12/19 01:29:34;;;;;;;0.60;0.60;;;;;;;0.72;93.95;98472.66;29371;320;64013;-60
2021/12/19 01:30:08;;;;;;;0.68;0.68;;;;;;;0.71;93.83;98475.50;29373;198;63008;-60
2021/12/19 01:30:39;;;;;;;0.60;0.60;;;;;;;0.70;93.60;98477.34;29373;216;63009;-61
2021/12/19 01:31:14;;;;;;;3.42;3.22;;;;;;;0.71;93.52;98476.34;29371;217;64009;-57
2021/12/19 01:31:45;;;;;;;0.60;0.60;;;;;;;0.71;93.40;98472.84;29373;284;63009;-57
2021/12/19 01:32:16;;;;;;;0.60;0.60;;;;;;;0.70;93.90;98474.69;29373;326;63005;-57
2021/12/19 01:32:48;;;;;;;0.70;0.70;;;;;;;0.72;93.73;98477.16;29373;336;63009;-61
2021/12/19 01:33:20;;;;;;;0.70;0.70;;;;;;;0.71;93.65;98475.50;29373;307;63005;-59
2021/12/19 01:33:52;;;;;;;0.70;0.70;;;;;;;0.70;93.60;98481.88;29373;334;63009;-60
2021/12/19 01:34:23;;;;;;;0.60;0.60;;;;;;;0.70;93.55;98482.69;29373;209;63005;-56
2021/12/19 01:34:54;;;;;;;0.70;0.70;;;;;;;0.71;93.74;98475.50;29373;303;63009;-58
2021/12/19 01:35:27;;;;;;;0.60;0.60;;;;;;;0.69;93.44;98483.75;29371;218;64009;-61
2021/12/19 01:35:59;;;;;;;0.60;0.60;;;;;;;0.69;93.46;98482.91;29371;264;64013;-60
2021/12/19 01:36:30;;;;;;;0.60;0.60;;;;;;;0.71;93.34;98483.53;29373;272;63004;-60
2021/12/19 01:37:02;;;;;;;0.60;0.60;;;;;;;0.71;93.58;98483.53;29373;273;63009;-59
2021/12/19 01:37:34;;;;;;;0.62;0.62;;;;;;;0.71;93.40;98472.84;29373;291;63004;-60
2021/12/19 01:38:06;;;;;;;0.60;0.60;;;;;;;0.69;93.56;98482.91;29373;237;63009;-60
2021/12/19 01:38:37;;;;;;;0.60;0.60;;;;;;;0.69;93.30;98488.25;29373;344;63005;-61
2021/12/19 01:39:10;;;;;;;0.60;0.60;;;;;;;0.69;93.58;98485.59;29373;213;63009;-60
2021/12/19 01:39:42;;;;;;;0.60;0.60;;;;;;;0.69;93.27;98486.41;29373;331;63005;-57
2021/12/19 01:40:17;;;;;;;0.60;0.60;;;;;;;0.71;93.32;98491.53;29371;354;64013;-61
2021/12/19 01:40:48;;;;;;;0.60;0.60;;;;;;;0.72;93.36;98493.19;29373;299;63005;-61
2021/12/19 01:41:20;;;;;;;0.60;0.60;;;;;;;0.69;93.58;98486.41;29373;228;63016;-57
2021/12/19 01:41:54;;;;;;;0.70;0.70;;;;;;;0.70;93.26;98484.53;29373;223;63004;-61
2021/12/19 01:42:34;;;;;;;0.60;0.60;;;;;;;0.82;93.37;98488.38;29373;224;63009;-63
2021/12/19 01:43:07;;;;;;;0.60;0.60;;;;;;;0.94;92.96;98486.84;29395;202;63004;-56
2021/12/19 01:43:38;;;;;;;0.60;0.60;;;;;;;0.91;92.36;98487.22;29394;277;64013;-56
2021/12/19 01:44:10;;;;;;;0.60;0.60;;;;;;;0.86;92.17;98485.13;29373;207;63004;-62
2021/12/19 01:44:44;;;;;;;0.60;0.60;;;;;;;0.84;92.42;98480.97;29373;346;63008;-60
2021/12/19 01:45:32;;;;;;;0.60;0.60;;;;;;;0.75;91.82;98484.78;29373;212;63004;-58
2021/12/19 01:46:04;;;;;;;0.60;0.60;;;;;;;0.67;92.08;98491.13;29373;266;63009;-58
2021/12/19 01:46:36;;;;;;;0.62;0.62;;;;;;;0.65;92.33;98493.16;29371;196;64009;-57
2021/12/19 01:47:07;;;;;;;0.60;0.60;;;;;;;0.63;92.40;98492.50;29373;239;63009;-61
2021/12/19 01:47:40;;;;;;;0.60;0.60;;;;;;;0.60;92.42;98492.91;29373;316;63017;-60
2021/12/19 01:48:13;;;;;;;0.60;0.60;;;;;;;0.58;92.66;98487.75;29373;265;63009;-57
2021/12/19 01:48:44;;;;;;;0.60;0.60;;;;;;;0.57;92.68;98488.75;29373;207;63005;-60
2021/12/19 01:49:17;;;;;;;0.80;0.80;;;;;;;0.58;92.80;98494.94;29373;202;63009;-61
2021/12/19 01:49:49;;;;;;;0.65;0.65;;;;;;;0.59;92.61;98493.91;29373;196;63004;-61
2021/12/19 01:50:21;;;;;;;0.60;0.60;;;;;;;0.59;92.83;98494.75;29371;266;64013;-56
2021/12/19 01:50:53;;;;;;;0.60;0.60;;;;;;;0.57;93.08;98488.75;29371;226;64003;-57
2021/12/19 01:51:24;;;;;;;0.62;0.62;;;;;;;0.56;93.12;98496.97;29373;218;63008;-57
2021/12/19 01:51:56;;;;;;;0.60;0.60;;;;;;;0.53;93.18;98495.50;29372;206;64004;-58
2021/12/19 01:52:29;;;;;;;0.60;0.60;;;;;;;0.51;93.33;98497.53;29373;305;63009;-61
2021/12/19 01:53:03;;;;;;;0.60;0.60;;;;;;;0.51;93.09;98497.53;29373;221;63011;-56
2021/12/19 01:53:36;;;;;;;0.60;0.60;;;;;;;0.52;93.36;98491.16;29373;257;63024;-60
2021/12/19 01:54:07;;;;;;;0.60;0.60;;;;;;;0.53;93.32;98492.00;29371;276;64009;-61
2021/12/19 01:54:39;;;;;;;0.70;0.70;;;;;;;0.50;93.71;98490.53;29373;358;63009;-60
2021/12/19 01:55:10;;;;;;;0.68;0.68;;;;;;;0.50;93.40;98495.88;29373;342;63005;-57
2021/12/19 01:55:44;;;;;;;0.70;0.70;;;;;;;0.50;93.76;98487.84;29373;252;63027;-57
2021/12/19 01:56:15;;;;;;;0.60;0.60;;;;;;;0.52;93.63;98493.00;29373;329;63005;-60
2021/12/19 01:56:47;;;;;;;0.60;0.60;;;;;;;0.52;93.68;98488.50;29373;290;63016;-60
2021/12/19 01:57:18;;;;;;;0.60;0.60;;;;;;;0.56;93.69;98489.78;29373;215;63004;-56
2021/12/19 01:57:50;;;;;;;0.60;0.60;;;;;;;0.56;94.05;98484.44;29373;274;63025;-56
2021/12/19 01:58:22;;;;;;;0.60;0.60;;;;;;;0.58;93.74;98487.75;29373;307;63004;-61
2021/12/19 01:58:54;;;;;;;0.60;0.60;;;;;;;0.57;93.69;98486.09;29373;230;63009;-60
2021/12/19 01:59:25;;;;;;;0.60;0.60;;;;;;;0.57;94.00;98493.28;29371;307;64008;-60
2021/12/19 01:59:56;;;;;;;0.70;0.70;;;;;;;0.56;94.08;98484.44;29373;237;63009;-57
2021/12/19 02:00:38;;;;;;;0.70;0.70;;;;;;;0.56;93.91;98484.44;29373;268;63005;-57
2021/12/19 02:01:10;;;;;;;0.60;0.60;;;;;;;0.55;94.23;98485.44;29373;202;63009;-57
2021/12/19 02:01:48;;;;;;;0.70;0.70;;;;;;;0.56;93.92;98488.94;29373;235;63005;-59
2021/12/19 02:02:21;;;;;;;0.70;0.70;;;;;;;0.55;94.22;98488.12;29373;198;63009;-60
2021/12/19 02:02:53;;;;;;;0.70;0.70;;;;;;;0.55;94.07;98482.78;29373;306;63005;-56
2021/12/19 02:03:27;;;;;;;0.77;0.77;;;;;;;0.54;94.29;98474.94;29373;270;63009;-62
2021/12/19 02:03:58;;;;;;;0.60;0.60;;;;;;;0.58;94.26;98474.38;29373;348;63004;-63
2021/12/19 02:04:30;;;;;;;0.60;0.60;;;;;;;0.64;94.22;98481.63;29371;283;64013;-61
2021/12/19 02:05:02;;;;;;;0.60;0.60;;;;;;;0.68;94.01;98481.25;29373;260;63004;-61
2021/12/19 02:05:35;;;;;;;0.60;0.60;;;;;;;0.69;93.84;98481.06;29373;243;63009;-61
2021/12/19 02:06:06;;;;;;;0.60;0.60;;;;;;;0.69;93.60;98472.22;29373;202;63004;-56
2021/12/19 02:06:38;;;;;;;0.60;0.60;;;;;;;0.69;93.53;98483.75;29373;270;63008;-60
2021/12/19 02:07:11;;;;;;;0.68;0.68;;;;;;;0.68;93.67;98476.75;29373;243;63008;-61
2021/12/19 02:07:46;;;;;;;0.60;0.60;;;;;;;0.66;93.59;98479.59;29373;216;63009;-60
2021/12/19 02:08:22;;;;;;;0.70;0.70;;;;;;;0.66;93.60;98484.94;29373;202;63016;-56
2021/12/19 02:08:59;;;;;;;0.60;0.60;;;;;;;0.66;93.34;98468.91;29371;301;64014;-57
2021/12/19 02:09:30;;;;;;;0.60;0.60;;;;;;;0.65;93.52;98469.94;29373;288;63005;-60
2021/12/19 02:10:03;;;;;;;0.60;0.60;;;;;;;0.65;93.37;98475.28;29373;241;63009;-56
2021/12/19 02:10:35;;;;;;;0.60;0.60;;;;;;;0.64;93.51;98476.28;29373;225;63005;-60
2021/12/19 02:11:07;;;;;;;0.60;0.60;;;;;;;0.63;93.45;98471.97;29373;220;63009;-58
2021/12/19 02:11:41;;;;;;;0.60;0.60;;;;;;;0.62;93.50;98473.00;29371;231;64009;-60
2021/12/19 02:12:12;;;;;;;0.60;0.60;;;;;;;0.60;93.62;98472.34;29373;253;63023;-61
2021/12/19 02:12:45;;;;;;;0.60;0.60;;;;;;;0.60;93.48;98471.53;29373;202;63004;-59
2021/12/19 02:13:17;;;;;;;0.60;0.60;;;;;;;0.59;93.49;98478.72;29373;197;63009;-59
2021/12/19 02:13:48;;;;;;;0.60;0.60;;;;;;;0.60;93.72;98483.03;29371;366;64009;-62
2021/12/19 02:14:20;;;;;;;0.60;0.60;;;;;;;0.60;93.75;98482.22;29373;325;63008;-59
2021/12/19 02:14:51;;;;;;;0.60;0.60;;;;;;;0.60;93.52;98480.38;29372;257;63005;-60
2021/12/19 02:15:26;;;;;;;0.60;0.60;;;;;;;0.61;93.87;98484.69;29373;259;63009;-61
2021/12/19 02:15:57;;;;;;;0.60;0.60;;;;;;;0.61;93.90;98482.03;29373;203;63017;-61
2021/12/19 02:16:32;;;;;;;0.75;0.75;;;;;;;0.64;93.94;98481.63;29373;325;63009;-61
2021/12/19 02:17:05;;;;;;;0.62;0.62;;;;;;;0.63;93.89;98479.97;29371;310;64009;-61
2021/12/19 02:17:43;;;;;;;0.60;0.60;;;;;;;0.64;93.81;98478.97;29373;210;63009;-61
2021/12/19 02:18:21;;;;;;;0.60;0.60;;;;;;;0.63;93.93;98482.66;29371;300;64009;-57
2021/12/19 02:18:58;;;;;;;0.60;0.60;;;;;;;0.63;93.86;98479.97;29371;293;64009;-61
2021/12/19 02:19:30;;;;;;;0.60;0.60;;;;;;;0.62;93.56;98478.34;29373;212;63004;-60
2021/12/19 02:20:03;;;;;;;0.60;0.60;;;;;;;0.62;93.80;98481.00;29373;205;63009;-60
2021/12/19 02:20:38;;;;;;;0.60;0.60;;;;;;;0.62;93.83;98478.34;29373;271;63004;-57
2021/12/19 02:21:09;;;;;;;0.60;0.60;;;;;;;0.62;93.64;98483.69;29371;223;64013;-60
2021/12/19 02:21:44;;;;;;;0.60;0.60;;;;;;;0.63;93.95;98482.66;29371;295;64008;-57
2021/12/19 02:22:15;;;;;;;0.60;0.60;;;;;;;0.65;93.71;98488.62;29373;238;63013;-56
2021/12/19 02:22:47;;;;;;;0.60;0.60;;;;;;;0.66;93.69;98484.94;29373;288;63005;-59
2021/12/19 02:23:21;;;;;;;0.60;0.60;;;;;;;0.69;94.06;98488.25;29373;222;63009;-60
2021/12/19 02:23:57;;;;;;;0.60;0.60;;;;;;;0.68;93.98;98486.59;29373;298;63011;-60
2021/12/19 02:24:28;;;;;;;0.60;0.60;;;;;;;0.68;93.90;98486.59;29373;322;63024;-60
2021/12/19 02:25:00;;;;;;;0.60;0.60;;;;;;;0.65;93.86;98488.62;29371;197;64009;-56
2021/12/19 02:25:32;;;;;;;0.60;0.60;;;;;;;0.64;93.74;98486.97;29373;217;63016;-57
2021/12/19 02:26:04;;;;;;;0.60;0.60;;;;;;;0.63;93.52;98479.16;29373;230;63004;-56
2021/12/19 02:26:37;;;;;;;0.60;0.60;;;;;;;0.62;93.70;98483.69;29373;199;63009;-60
2021/12/19 02:27:08;;;;;;;0.60;0.60;;;;;;;0.61;93.62;98486.53;29373;331;63004;-61
2021/12/19 02:27:40;;;;;;;0.60;0.60;;;;;;;0.59;93.71;98478.72;29372;205;63009;-60
2021/12/19 02:28:12;;;;;;;0.60;0.60;;;;;;;0.57;94.16;98480.75;29373;298;63004;-60
2021/12/19 02:28:43;;;;;;;0.60;0.60;;;;;;;0.54;94.12;98474.94;29373;235;63016;-58
2021/12/19 02:29:15;;;;;;;0.60;0.60;;;;;;;0.51;94.00;98470.81;29373;348;63004;-61
2021/12/19 02:29:46;;;;;;;0.70;0.70;;;;;;;0.49;94.08;98477.37;29371;223;64013;-60
2021/12/19 02:30:18;;;;;;;0.60;0.60;;;;;;;0.48;94.46;98465.84;29373;270;63005;-56
2021/12/19 02:30:53;;;;;;;0.70;0.70;;;;;;;0.47;94.24;98469.53;29373;338;63009;-61
2021/12/19 02:31:27;;;;;;;0.60;0.60;;;;;;;0.48;94.23;98465.84;29373;211;63005;-60
2021/12/19 02:31:59;;;;;;;2.17;2.15;;;;;;;0.47;94.58;98461.53;29373;360;63009;-56
2021/12/19 02:32:31;;;;;;;0.60;0.60;;;;;;;0.48;94.43;98465.03;29373;294;63005;-57
2021/12/19 02:33:09;;;;;;;0.60;0.60;;;;;;;0.48;94.83;98465.84;29373;360;63023;-58
2021/12/19 02:33:44;;;;;;;0.60;0.60;;;;;;;0.48;94.73;98460.50;29371;309;64009;-59
2021/12/19 02:34:22;;;;;;;0.60;0.60;;;;;;;0.48;94.65;98454.34;29371;198;64013;-61
2021/12/19 02:34:56;;;;;;;0.60;0.60;;;;;;;0.47;94.98;98453.50;29371;210;64009;-59
2021/12/19 02:35:32;;;;;;;0.60;0.60;;;;;;;0.47;95.02;98452.69;29373;250;63009;-60
2021/12/19 02:37:06;;;;;;;0.70;0.70;;;;;;;0.46;94.86;98449.19;29373;202;63009;-60
2021/12/19 02:39:19;;;;;;;0.70;0.70;;;;;;;0.46;94.80;98446.53;29373;197;63009;-60
2021/12/19 02:40:32;;;;;;;0.65;0.65;;;;;;;0.49;94.94;98445.31;29395;219;63009;-61
2021/12/19 02:48:15;;;;;;;0.60;0.60;;;;;;;0.43;94.87;98444.22;29373;203;63005;-61
2021/12/19 02:48:46;;;;;;;0.70;0.70;;;;;;;0.43;95.03;98446.91;29373;212;63009;-60
2021/12/19 02:49:25;;;;;;;0.60;0.60;;;;;;;0.45;94.96;98439.53;29372;208;64004;-60
2021/12/19 02:49:56;;;;;;;0.60;0.60;;;;;;;0.45;94.66;98444.88;29371;223;64013;-57
2021/12/19 02:50:28;;;;;;;0.65;0.65;;;;;;;0.45;94.80;98444.03;29373;304;63008;-57
2021/12/19 02:51:01;;;;;;;0.60;0.60;;;;;;;0.42;94.94;98450.59;29373;223;63008;-57
2021/12/19 02:51:34;;;;;;;0.60;0.60;;;;;;;0.42;94.89;98449.75;29373;196;63016;-61
2021/12/19 02:52:14;;;;;;;0.65;0.65;;;;;;;0.42;95.11;98453.25;29373;204;63009;-57
2021/12/19 02:52:46;;;;;;;0.60;0.60;;;;;;;0.39;94.74;98450.97;29373;204;63005;-60
2021/12/19 02:53:49;;;;;;;0.60;0.60;;;;;;;0.39;95.19;98450.97;29373;216;63009;-56
2021/12/19 02:54:25;;;;;;;0.60;0.60;;;;;;;0.40;95.21;98455.28;29371;235;64009;-56
2021/12/19 02:54:56;;;;;;;0.70;0.70;;;;;;;0.42;94.78;98455.94;29373;230;63009;-61
2021/12/19 02:55:28;;;;;;;0.60;0.60;;;;;;;0.43;94.85;98454.09;29371;210;64009;-56